Main page
METAR-TAF:

METAR-TAF

Airports :

Córdoba, Argentina

Ingeniero Aeronáutico Ambrosio L.V. Taravella International Airport

latitude: 31-19S, longitude: 064-13W, elevation: 484 m

Current weather observation

The report was made 55 minutes ago, at 17:00 UTC
Wind 4 kt from the East/Northeast
Temperature 27°C
Humidity 32%
Pressure 1019 hPa
Visibility 10 km or more
no clouds below 1500 m and no cumulonimbus

METAR: SACO 281700Z 07004KT CAVOK 27/09 Q1019

Time: 14:55 (17:55 UTC)

Forecast

The report was made 6 hours and 55 minutes ago, at 11:00 UTC
Forecast valid from 28 at 12 UTC to 29 at 12 UTC
Wind 5 kt from the West/Northwest
Visibility 10 km or more
no clouds below 1500 m and no cumulonimbus
Becoming
from 28 at 14 UTC to 28 at 18 UTC
Wind 10 kt from the North
Visibility 10 km or more
no clouds below 1500 m and no cumulonimbus

TAF: SACO 281100Z 2812/2912 29005KT CAVOK TX24/2818Z TN07/2910Z BECMG 2814/2818 36010KT CAVOK

Weather observations and forecasts of more than 4000 airports (METAR and TAF reports).

The available stations are represented by yellow and red dots on the map.

Hover mouse over dot to see the name of the station.

Then click to see weather observations and forecasts.

To change the map : click on the green buttons with a black cross to zoom in, on the green button with a dash to zoom out, or on the green arrows for adjacent maps.


METAR-TAF: